Time;durP1;ratioP1;P1;durP2;ratioP2;P2;SDS_P1;SDS_P2;PMS_P1;PMS_P2;Temp;Humidity;BMP_temperature;BMP_pressure;BME280_temperature;BME280_humidity;BME280_pressure;Samples;Min_cycle;Max_cycle;Signal;HPM_P1;HPM_P2
2023/09/14 00:01:24;;;;;;;11.80;4.47;;;;;;;12.62;100.00;102210.56;5199065;28;20025;-82
2023/09/14 00:03:54;;;;;;;10.90;5.38;;;;;;;12.59;100.00;102208.16;5192413;28;20105;-82
2023/09/14 00:06:25;;;;;;;11.27;5.05;;;;;;;12.55;100.00;102212.19;5196186;28;20036;-81
2023/09/14 00:08:55;;;;;;;7.88;4.65;;;;;;;12.54;100.00;102210.44;5200501;28;20129;-83
2023/09/14 00:11:26;;;;;;;12.43;4.82;;;;;;;12.53;100.00;102211.44;5198990;28;20026;-81
2023/09/14 00:13:56;;;;;;;9.25;4.47;;;;;;;12.52;100.00;102212.44;5201210;28;20037;-81
2023/09/14 00:16:27;;;;;;;11.77;4.57;;;;;;;12.48;100.00;102211.03;5203669;28;20395;-81
2023/09/14 00:18:57;;;;;;;11.23;4.78;;;;;;;12.48;100.00;102202.13;5199467;28;20026;-86
2023/09/14 00:21:28;;;;;;;15.98;5.32;;;;;;;12.44;100.00;102205.09;5189635;28;20025;-83
2023/09/14 00:23:58;;;;;;;12.75;4.78;;;;;;;12.41;100.00;102201.88;5188144;28;20486;-81
2023/09/14 00:26:29;;;;;;;8.90;4.70;;;;;;;12.42;100.00;102217.00;5192063;28;20030;-82
2023/09/14 00:28:59;;;;;;;8.73;4.88;;;;;;;12.40;100.00;102216.31;5195127;28;20025;-81
2023/09/14 00:31:30;;;;;;;10.98;4.82;;;;;;;12.37;100.00;102213.91;5192643;28;20018;-82
2023/09/14 00:34:00;;;;;;;9.88;4.95;;;;;;;12.33;100.00;102217.88;5195581;28;20026;-82
2023/09/14 00:36:30;;;;;;;12.90;5.20;;;;;;;12.31;100.00;102215.34;5196870;28;20041;-82
2023/09/14 00:39:01;;;;;;;19.88;5.35;;;;;;;12.31;100.00;102219.88;5188823;28;20369;-81
2023/09/14 00:41:31;;;;;;;13.80;5.38;;;;;;;12.31;100.00;102217.19;5193975;28;20091;-84
2023/09/14 00:44:02;;;;;;;14.10;5.90;;;;;;;12.29;100.00;102216.47;5184390;28;20578;-82
2023/09/14 00:46:33;;;;;;;12.75;5.35;;;;;;;12.24;100.00;102218.72;5195773;28;20049;-83
2023/09/14 00:49:04;;;;;;;9.88;5.15;;;;;;;12.21;100.00;102222.56;5196929;28;20044;-86
2023/09/14 00:51:35;;;;;;;8.80;4.53;;;;;;;12.13;100.00;102211.66;5199730;28;20021;-82
2023/09/14 00:54:05;;;;;;;10.13;4.60;;;;;;;12.09;100.00;102212.94;5186843;28;20051;-86
2023/09/14 00:56:36;;;;;;;10.55;5.15;;;;;;;12.06;100.00;102221.31;5196728;28;20045;-85
2023/09/14 00:59:08;;;;;;;11.52;4.35;;;;;;;12.06;100.00;102219.47;5193491;28;20022;-82
2023/09/14 01:01:39;;;;;;;10.05;4.50;;;;;;;12.06;100.00;102213.25;5193341;28;20040;-87
2023/09/14 01:04:10;;;;;;;7.38;4.10;;;;;;;12.04;100.00;102215.22;5197589;28;20487;-82
2023/09/14 01:06:40;;;;;;;11.57;5.32;;;;;;;12.04;100.00;102221.44;5194343;28;20041;-83
2023/09/14 01:09:11;;;;;;;9.05;4.38;;;;;;;12.00;100.00;102216.47;5200660;28;20025;-82
2023/09/14 01:11:42;;;;;;;9.98;4.57;;;;;;;11.96;100.00;102215.09;5192997;28;20099;-81
2023/09/14 01:14:30;;;;;;;11.52;5.28;;;;;;;11.93;100.00;102219.75;5193578;28;20060;-81
2023/09/14 01:17:26;;;;;;;8.60;3.75;;;;;;;11.89;100.00;102221.00;5173701;28;20041;-81
2023/09/14 01:20:33;;;;;;;7.85;4.55;;;;;;;11.83;100.00;102220.75;5186750;28;20511;-81
2023/09/14 01:23:38;;;;;;;13.02;4.82;;;;;;;11.74;100.00;102214.31;5189608;28;20087;-81
2023/09/14 01:26:11;;;;;;;10.98;4.05;;;;;;;11.68;100.00;102220.28;5193050;28;20029;-83
2023/09/14 01:29:04;;;;;;;10.98;4.75;;;;;;;11.66;100.00;102223.09;5191336;28;20383;-81
2023/09/14 01:31:34;;;;;;;6.32;3.88;;;;;;;11.67;100.00;102219.41;5195629;28;20495;-82
2023/09/14 01:34:23;;;;;;;12.05;4.70;;;;;;;11.69;100.00;102216.59;5187366;28;20108;-82
2023/09/14 01:36:57;;;;;;;9.93;4.28;;;;;;;11.68;100.00;102215.75;5189486;28;20160;-82
2023/09/14 01:39:28;;;;;;;12.35;5.35;;;;;;;11.66;100.00;102222.25;5187394;28;20496;-82
2023/09/14 01:42:00;;;;;;;10.95;4.50;;;;;;;11.68;100.00;102217.59;5190880;28;20064;-83
2023/09/14 01:44:31;;;;;;;11.38;5.50;;;;;;;11.68;100.00;102218.44;5193207;28;20484;-82
2023/09/14 01:47:01;;;;;;;12.82;5.82;;;;;;;11.66;100.00;102216.88;5194657;28;20033;-85
2023/09/14 01:49:32;;;;;;;11.75;6.32;;;;;;;11.64;100.00;102229.59;5192800;28;20025;-81
2023/09/14 01:52:02;;;;;;;13.35;6.30;;;;;;;11.60;100.00;102228.19;5198073;28;20022;-81
2023/09/14 01:54:34;;;;;;;12.38;6.47;;;;;;;11.56;100.00;102224.09;5197679;28;20030;-83
2023/09/14 01:57:04;;;;;;;13.23;6.47;;;;;;;11.54;100.00;102221.50;5193174;28;20052;-82
2023/09/14 01:59:35;;;;;;;9.80;4.03;;;;;;;11.55;100.00;102233.16;5194055;28;20104;-82
2023/09/14 02:02:05;;;;;;;6.85;3.08;;;;;;;11.51;100.00;102227.19;5191661;28;20052;-83
2023/09/14 02:04:36;;;;;;;5.55;2.85;;;;;;;11.51;100.00;102229.03;5197888;28;20495;-81
2023/09/14 02:07:07;;;;;;;6.20;3.10;;;;;;;11.50;100.00;102228.19;5192021;28;20078;-83
2023/09/14 02:09:37;;;;;;;5.75;3.05;;;;;;;11.46;100.00;102217.84;5189085;28;20447;-82
2023/09/14 02:12:08;;;;;;;3.08;2.25;;;;;;;11.42;100.00;102219.94;5188926;28;20022;-83
2023/09/14 02:14:39;;;;;;;4.72;2.53;;;;;;;11.37;100.00;102217.69;5192970;28;20460;-84
2023/09/14 02:17:09;;;;;;;4.47;2.40;;;;;;;11.37;100.00;102203.41;5187034;28;20468;-82
2023/09/14 02:19:40;;;;;;;6.05;2.78;;;;;;;11.35;100.00;102211.59;5190679;28;20030;-82
2023/09/14 02:22:10;;;;;;;8.68;3.17;;;;;;;11.34;100.00;102204.50;5191198;28;20022;-82
2023/09/14 02:24:41;;;;;;;7.45;3.22;;;;;;;11.32;100.00;102203.81;5185935;28;20664;-82
2023/09/14 02:27:12;;;;;;;4.40;1.98;;;;;;;11.31;100.00;102201.28;5193387;28;20113;-85
2023/09/14 02:29:45;;;;;;;23.92;4.05;;;;;;;11.30;100.00;102202.25;5190981;28;20033;-82
2023/09/14 02:32:16;;;;;;;11.90;4.50;;;;;;;11.27;100.00;102216.81;5188514;28;20026;-82
2023/09/14 02:34:48;;;;;;;11.32;5.80;;;;;;;11.26;100.00;102207.06;5199287;28;20033;-82
2023/09/14 02:37:18;;;;;;;13.43;5.50;;;;;;;11.24;100.00;102206.31;5192166;28;20399;-83
2023/09/14 02:39:48;;;;;;;12.98;5.25;;;;;;;11.22;100.00;102202.94;5191375;28;20029;-82
2023/09/14 02:42:19;;;;;;;11.95;5.45;;;;;;;11.22;100.00;102199.41;5194738;28;20029;-82
2023/09/14 02:44:50;;;;;;;13.02;6.15;;;;;;;11.21;100.00;102205.78;5194946;28;20040;-82
2023/09/14 02:47:20;;;;;;;8.23;4.72;;;;;;;11.22;100.00;102208.31;5198890;28;20041;-85
2023/09/14 02:49:51;;;;;;;5.68;3.63;;;;;;;11.18;100.00;102209.56;5187275;28;20033;-82
2023/09/14 02:52:21;;;;;;;13.13;4.97;;;;;;;11.13;100.00;102209.13;5194894;28;20522;-83
2023/09/14 02:54:52;;;;;;;7.50;4.38;;;;;;;11.09;100.00;102205.88;5195128;28;20112;-81
2023/09/14 02:57:22;;;;;;;11.32;4.45;;;;;;;11.12;100.00;102210.97;5186910;28;20018;-85
2023/09/14 02:59:54;;;;;;;6.20;3.50;;;;;;;11.11;100.00;102203.06;5196190;28;20092;-81
2023/09/14 03:02:26;;;;;;;8.73;3.70;;;;;;;11.08;100.00;102209.53;5186483;28;20037;-83
2023/09/14 03:04:56;;;;;;;14.60;5.20;;;;;;;11.08;100.00;102211.38;5192266;28;20057;-82
2023/09/14 03:07:27;;;;;;;9.35;4.63;;;;;;;11.07;100.00;102205.16;5191983;28;20064;-82
2023/09/14 03:09:57;;;;;;;7.68;4.15;;;;;;;11.08;100.00;102203.31;5189082;28;20376;-82
2023/09/14 03:12:28;;;;;;;10.35;4.57;;;;;;;11.06;100.00;102205.31;5196327;28;20036;-82
2023/09/14 03:14:58;;;;;;;8.48;4.25;;;;;;;11.05;100.00;102206.28;5198100;28;20112;-82
2023/09/14 03:17:29;;;;;;;6.18;4.15;;;;;;;11.05;100.00;102212.50;5185174;28;20038;-85
2023/09/14 03:20:00;;;;;;;8.07;3.83;;;;;;;11.04;100.00;102205.41;5190771;28;20040;-81
2023/09/14 03:22:30;;;;;;;10.48;3.55;;;;;;;11.02;100.00;102206.56;5189699;28;20392;-82
2023/09/14 03:25:01;;;;;;;10.13;4.28;;;;;;;11.01;100.00;102204.84;5172010;28;20029;-85
2023/09/14 03:27:32;;;;;;;12.52;5.05;;;;;;;11.00;100.00;102209.38;5193080;28;20104;-82
2023/09/14 03:30:02;;;;;;;9.05;5.22;;;;;;;10.99;100.00;102213.03;5186099;28;20040;-82
2023/09/14 03:32:33;;;;;;;10.88;4.72;;;;;;;10.99;100.00;102210.34;5193498;28;20076;-85
2023/09/14 03:35:04;;;;;;;10.20;4.68;;;;;;;10.99;100.00;102213.03;5188414;28;20021;-82
2023/09/14 03:37:35;;;;;;;9.65;4.97;;;;;;;10.96;100.00;102210.63;5194088;28;20034;-82
2023/09/14 03:40:08;;;;;;;17.80;6.30;;;;;;;10.96;100.00;102213.31;5185880;28;20029;-82
2023/09/14 03:42:38;;;;;;;14.27;6.82;;;;;;;10.97;100.00;102208.78;5187850;28;20136;-81
2023/09/14 03:45:09;;;;;;;13.85;6.32;;;;;;;10.95;100.00;102211.63;5191954;28;20026;-81
2023/09/14 03:47:40;;;;;;;10.35;5.68;;;;;;;10.93;100.00;102210.88;5198610;28;20026;-83
2023/09/14 03:50:10;;;;;;;11.27;5.60;;;;;;;10.93;100.00;102215.41;5194083;28;20060;-82
2023/09/14 03:52:41;;;;;;;11.73;5.57;;;;;;;10.93;100.00;102205.53;5192090;28;20061;-82
2023/09/14 03:55:11;;;;;;;10.23;4.85;;;;;;;10.93;100.00;102202.00;5190002;28;20166;-82
2023/09/14 03:57:47;;;;;;;11.07;5.50;;;;;;;10.94;100.00;102206.38;5187225;28;20033;-82
2023/09/14 04:00:18;;;;;;;12.68;6.60;;;;;;;10.91;100.00;102202.13;5187199;28;20168;-88
2023/09/14 04:02:49;;;;;;;16.02;6.68;;;;;;;10.92;100.00;102209.19;5190880;28;20033;-83
2023/09/14 04:05:20;;;;;;;10.48;5.07;;;;;;;10.93;100.00;102202.00;5189102;28;20021;-83
2023/09/14 04:07:51;;;;;;;15.07;6.50;;;;;;;10.97;100.00;102206.97;5192801;28;20115;-81
2023/09/14 04:10:21;;;;;;;11.13;6.30;;;;;;;11.01;100.00;102207.53;5184031;28;20033;-84
2023/09/14 04:13:17;;;;;;;10.45;5.90;;;;;;;11.00;100.00;102197.78;5193895;28;20116;-81
2023/09/14 04:15:47;;;;;;;12.60;6.28;;;;;;;10.99;100.00;102193.38;5193597;28;20446;-81
2023/09/14 04:18:18;;;;;;;11.50;5.45;;;;;;;10.95;100.00;102194.66;5187314;28;20026;-81
2023/09/14 04:20:50;;;;;;;13.93;6.40;;;;;;;10.91;100.00;102196.75;5188659;28;20029;-81
2023/09/14 04:23:21;;;;;;;16.48;6.53;;;;;;;10.89;100.00;102188.84;5185602;28;20026;-83
2023/09/14 04:25:51;;;;;;;12.75;5.43;;;;;;;10.90;100.00;102192.38;5191021;28;20037;-81
2023/09/14 04:28:22;;;;;;;11.23;5.78;;;;;;;10.89;100.00;102187.97;5186674;28;20029;-85
2023/09/14 04:30:57;;;;;;;12.40;6.32;;;;;;;10.88;100.00;102194.34;5191147;28;20521;-81
2023/09/14 04:33:29;;;;;;;15.73;7.68;;;;;;;10.85;100.00;102198.16;5196887;28;20017;-84
2023/09/14 04:36:02;;;;;;;11.73;7.03;;;;;;;10.85;100.00;102194.63;5186638;28;20116;-83
2023/09/14 04:38:33;;;;;;;15.75;6.63;;;;;;;10.83;100.00;102193.91;5189701;28;20014;-83
2023/09/14 04:41:04;;;;;;;10.98;6.28;;;;;;;10.80;100.00;102192.34;5186774;28;20047;-83
2023/09/14 04:43:36;;;;;;;10.52;5.40;;;;;;;10.80;100.00;102194.19;5201952;28;20022;-84
2023/09/14 04:46:07;;;;;;;13.80;5.72;;;;;;;10.77;100.00;102192.59;5196487;28;20026;-85
2023/09/14 04:48:38;;;;;;;11.95;6.13;;;;;;;10.77;100.00;102200.66;5187441;28;20030;-83
2023/09/14 04:51:08;;;;;;;10.63;4.78;;;;;;;10.73;100.00;102196.53;5188389;28;20030;-83
2023/09/14 04:53:39;;;;;;;15.32;3.92;;;;;;;10.71;100.00;102197.66;5191530;28;20096;-88
2023/09/14 04:56:09;;;;;;;15.77;5.13;;;;;;;10.66;100.00;102206.13;5190273;28;20029;-83
2023/09/14 04:58:40;;;;;;;25.05;7.32;;;;;;;10.66;100.00;102211.50;5195523;28;20483;-83
2023/09/14 05:01:10;;;;;;;33.80;6.18;;;;;;;10.63;100.00;102207.22;5195499;28;20652;-82
2023/09/14 05:03:41;;;;;;;29.10;7.57;;;;;;;10.62;100.00;102208.22;5199087;28;20395;-83
2023/09/14 05:06:11;;;;;;;20.23;7.30;;;;;;;10.60;100.00;102206.66;5191471;28;20029;-84
2023/09/14 05:08:42;;;;;;;15.77;6.82;;;;;;;10.60;100.00;102215.56;5193787;28;20039;-84
2023/09/14 05:11:12;;;;;;;16.00;6.72;;;;;;;10.61;100.00;102214.56;5196626;28;20022;-85
2023/09/14 05:13:43;;;;;;;14.95;6.47;;;;;;;10.62;100.00;102216.25;5190731;28;20519;-83
2023/09/14 05:16:13;;;;;;;18.50;6.18;;;;;;;10.63;100.00;102222.47;5196613;28;20075;-85
2023/09/14 05:18:45;;;;;;;17.73;6.97;;;;;;;10.61;100.00;102222.63;5192072;28;20104;-84
2023/09/14 05:21:16;;;;;;;18.83;8.52;;;;;;;10.62;100.00;102221.63;5193576;28;20017;-84
2023/09/14 05:23:46;;;;;;;16.17;7.32;;;;;;;10.62;100.00;102218.09;5195205;28;20036;-83
2023/09/14 05:26:17;;;;;;;12.90;6.13;;;;;;;10.62;100.00;102221.63;5199733;28;20029;-82
2023/09/14 05:28:47;;;;;;;14.93;6.43;;;;;;;10.63;100.00;102227.84;5200728;28;20021;-82
2023/09/14 05:31:18;;;;;;;17.05;6.63;;;;;;;10.63;100.00;102222.47;5194589;28;20022;-85
2023/09/14 05:33:48;;;;;;;27.75;7.85;;;;;;;10.65;100.00;102230.41;5184265;28;20029;-82
2023/09/14 05:36:19;;;;;;;17.85;8.10;;;;;;;10.65;100.00;102235.78;5194859;28;20044;-82
2023/09/14 05:38:49;;;;;;;12.80;6.40;;;;;;;10.66;100.00;102232.97;5198150;28;20418;-82
2023/09/14 05:41:20;;;;;;;12.40;6.50;;;;;;;10.69;100.00;102224.63;5190524;28;20030;-85
2023/09/14 05:43:50;;;;;;;19.05;8.95;;;;;;;10.75;100.00;102232.16;5203332;28;20117;-83
2023/09/14 05:46:21;;;;;;;16.40;8.43;;;;;;;10.83;100.00;102226.09;5192082;28;20025;-86
2023/09/14 05:48:51;;;;;;;18.45;8.68;;;;;;;10.93;100.00;102235.06;5191752;28;20038;-82
2023/09/14 05:51:23;;;;;;;24.27;10.02;;;;;;;11.00;100.00;102230.88;5193804;28;20109;-83
2023/09/14 05:53:54;;;;;;;23.02;9.68;;;;;;;11.09;100.00;102230.06;5196802;28;20036;-86
2023/09/14 05:56:25;;;;;;;22.40;9.77;;;;;;;11.20;100.00;102230.94;5192251;28;20543;-83
2023/09/14 05:58:55;;;;;;;21.70;10.45;;;;;;;11.29;100.00;102230.94;5195166;28;20111;-83
2023/09/14 06:01:26;;;;;;;24.65;11.68;;;;;;;11.39;100.00;102230.97;5192191;28;20910;-82
2023/09/14 06:03:56;;;;;;;19.25;10.63;;;;;;;11.51;100.00;102229.03;5190822;28;20084;-84
2023/09/14 06:06:27;;;;;;;21.88;11.68;;;;;;;11.68;100.00;102234.56;5196581;28;20025;-84
2023/09/14 06:08:57;;;;;;;25.00;10.27;;;;;;;12.02;100.00;102228.81;5192729;28;20391;-85
2023/09/14 06:11:28;;;;;;;18.15;9.73;;;;;;;12.44;100.00;102229.31;5197016;28;20021;-82
2023/09/14 06:13:58;;;;;;;15.45;9.55;;;;;;;12.92;100.00;102227.47;5191825;28;20484;-82
2023/09/14 06:16:29;;;;;;;16.30;9.02;;;;;;;13.27;100.00;102239.41;5191215;28;20026;-83
2023/09/14 06:18:59;;;;;;;22.10;10.73;;;;;;;13.53;100.00;102235.00;5188830;28;20037;-84
2023/09/14 06:21:30;;;;;;;18.75;11.60;;;;;;;13.89;100.00;102232.31;5195771;28;20028;-84
2023/09/14 06:24:01;;;;;;;22.00;11.15;;;;;;;14.23;100.00;102240.53;5201998;28;20487;-83
2023/09/14 06:26:31;;;;;;;21.27;10.60;;;;;;;14.66;100.00;102236.13;5192625;28;20032;-83
2023/09/14 06:29:02;;;;;;;19.35;10.48;;;;;;;15.10;100.00;102245.00;5198331;28;20025;-84
2023/09/14 06:31:33;;;;;;;16.73;9.55;;;;;;;15.59;100.00;102239.75;5201608;28;20025;-85
2023/09/14 06:34:03;;;;;;;13.82;8.80;;;;;;;15.89;100.00;102242.91;5198621;28;20029;-88
2023/09/14 06:36:34;;;;;;;18.38;9.07;;;;;;;16.09;100.00;102236.16;5187007;28;20373;-85
2023/09/14 06:39:05;;;;;;;13.95;8.30;;;;;;;16.20;100.00;102240.38;5201142;28;20038;-85
2023/09/14 06:41:35;;;;;;;18.60;10.13;;;;;;;16.46;100.00;102237.47;5199232;28;20036;-84
2023/09/14 06:44:06;;;;;;;14.50;9.27;;;;;;;16.82;100.00;102237.97;5196343;28;20040;-84
2023/09/14 06:46:36;;;;;;;16.27;9.40;;;;;;;16.96;100.00;102231.78;5196635;28;20044;-84
2023/09/14 06:49:07;;;;;;;15.30;9.20;;;;;;;17.20;100.00;102241.72;5196625;28;20391;-85
2023/09/14 06:51:37;;;;;;;17.10;8.05;;;;;;;17.49;100.00;102234.78;5197849;28;20109;-89
2023/09/14 06:54:08;;;;;;;13.32;7.78;;;;;;;17.68;100.00;102234.34;5201032;28;20033;-84
2023/09/14 06:56:39;;;;;;;17.38;8.77;;;;;;;18.04;100.00;102233.78;5197922;28;20044;-85
2023/09/14 06:59:10;;;;;;;15.50;8.30;;;;;;;18.20;100.00;102238.22;5197712;28;20041;-87
2023/09/14 07:01:40;;;;;;;14.45;7.88;;;;;;;18.38;100.00;102241.47;5192504;28;20159;-84
2023/09/14 07:04:11;;;;;;;13.90;9.63;;;;;;;18.63;100.00;102240.19;5197950;28;20175;-85
2023/09/14 07:06:42;;;;;;;17.42;8.75;;;;;;;18.94;100.00;102243.81;5193068;28;20041;-85
2023/09/14 07:09:12;;;;;;;12.27;7.80;;;;;;;19.20;100.00;102246.88;5197445;28;20087;-85
2023/09/14 07:11:42;;;;;;;13.27;8.25;;;;;;;19.55;100.00;102249.81;5194340;28;20038;-86
2023/09/14 07:14:13;;;;;;;18.35;8.60;;;;;;;19.72;100.00;102250.44;5194974;28;20025;-86
2023/09/14 07:16:43;;;;;;;14.60;8.43;;;;;;;20.01;100.00;102250.34;5178435;28;20022;-86
2023/09/14 07:19:14;;;;;;;14.10;8.38;;;;;;;20.27;100.00;102246.16;5191710;28;20037;-85
2023/09/14 07:21:44;;;;;;;18.38;8.75;;;;;;;20.52;100.00;102252.06;5181961;28;20040;-86
2023/09/14 07:24:15;;;;;;;13.10;6.43;;;;;;;20.91;100.00;102249.63;5194662;28;20040;-85
2023/09/14 07:26:45;;;;;;;13.65;8.13;;;;;;;20.99;100.00;102250.50;5196728;28;20507;-86
2023/09/14 07:29:16;;;;;;;16.27;8.63;;;;;;;20.83;100.00;102252.50;5195236;28;20107;-83
2023/09/14 07:31:48;;;;;;;15.43;8.90;;;;;;;20.89;100.00;102246.25;5194705;28;20035;-87
2023/09/14 07:34:18;;;;;;;18.73;9.13;;;;;;;21.17;100.00;102250.78;5193676;28;20503;-85
2023/09/14 07:36:50;;;;;;;19.02;8.63;;;;;;;21.43;100.00;102252.81;5186945;28;20048;-85
2023/09/14 07:39:20;;;;;;;16.88;8.48;;;;;;;21.48;100.00;102254.94;5193965;28;20029;-86
2023/09/14 07:41:55;;;;;;;18.92;9.32;;;;;;;21.59;100.00;102255.22;5192935;28;20026;-85
2023/09/14 07:44:26;;;;;;;17.20;8.63;;;;;;;21.70;100.00;102251.03;5191160;28;20029;-86
2023/09/14 07:46:56;;;;;;;11.93;8.02;;;;;;;21.87;100.00;102249.59;5197537;28;20022;-83
2023/09/14 07:49:27;;;;;;;16.83;9.18;;;;;;;21.92;100.00;102254.44;5192894;28;20056;-86
2023/09/14 07:51:57;;;;;;;19.85;9.32;;;;;;;22.02;100.00;102251.31;5191807;28;20511;-86
2023/09/14 07:54:28;;;;;;;15.85;9.07;;;;;;;22.05;100.00;102249.00;5196651;28;20100;-85
2023/09/14 07:56:58;;;;;;;22.35;9.52;;;;;;;22.10;100.00;102254.69;5191813;28;20026;-82
2023/09/14 07:59:29;;;;;;;15.02;9.38;;;;;;;22.43;100.00;102254.72;5187529;28;20032;-87
2023/09/14 08:01:59;;;;;;;17.55;9.90;;;;;;;22.57;100.00;102251.97;5171484;28;20042;-86
2023/09/14 08:04:29;;;;;;;22.00;9.68;;;;;;;22.48;100.00;102246.72;5171811;28;20387;-85
2023/09/14 08:07:00;;;;;;;14.95;8.68;;;;;;;22.59;100.00;102252.59;5190706;28;20029;-90
2023/09/14 08:09:31;;;;;;;13.02;8.90;;;;;;;22.48;100.00;102248.59;5190941;28;20018;-84
2023/09/14 08:12:01;;;;;;;14.80;8.93;;;;;;;22.51;100.00;102255.56;5193395;28;20022;-85
2023/09/14 08:14:31;;;;;;;13.82;8.85;;;;;;;22.74;100.00;102259.53;5178383;28;20476;-86
2023/09/14 08:17:02;;;;;;;16.55;9.25;;;;;;;22.64;100.00;102259.13;5191417;28;20030;-85
2023/09/14 08:19:32;;;;;;;13.50;8.90;;;;;;;22.86;100.00;102265.19;5188536;28;20025;-87
2023/09/14 08:22:04;;;;;;;16.73;9.45;;;;;;;22.84;100.00;102266.44;5190831;28;20084;-87
2023/09/14 08:24:35;;;;;;;15.20;9.05;;;;;;;22.82;100.00;102266.66;5195686;28;20462;-87
2023/09/14 08:27:05;;;;;;;16.40;8.98;;;;;;;23.05;100.00;102265.41;5190263;28;20043;-90
2023/09/14 08:29:37;;;;;;;14.52;8.93;;;;;;;23.27;100.00;102264.88;5185549;28;20018;-85
2023/09/14 08:32:07;;;;;;;17.67;9.63;;;;;;;23.45;100.00;102266.09;5189387;28;20029;-89
2023/09/14 08:34:38;;;;;;;15.48;8.95;;;;;;;23.67;100.00;102263.91;5195575;28;20491;-86
2023/09/14 08:37:10;;;;;;;16.35;8.90;;;;;;;23.71;100.00;102271.47;5197149;28;20025;-85
2023/09/14 08:39:41;;;;;;;16.77;9.23;;;;;;;23.59;100.00;102273.16;5197880;28;20032;-86
2023/09/14 08:42:13;;;;;;;17.35;9.00;;;;;;;23.59;100.00;102272.31;5193507;28;20034;-86
2023/09/14 08:44:47;;;;;;;17.45;8.68;;;;;;;23.57;100.00;102261.59;5197448;28;20022;-88
2023/09/14 08:47:19;;;;;;;16.95;9.45;;;;;;;23.66;100.00;102264.97;5195028;28;20125;-86
2023/09/14 08:49:53;;;;;;;14.85;9.07;;;;;;;23.57;100.00;102269.81;5196442;28;20025;-87
2023/09/14 08:52:24;;;;;;;16.85;9.48;;;;;;;23.60;100.00;102265.81;5192101;28;20080;-88
2023/09/14 08:54:56;;;;;;;15.68;8.77;;;;;;;23.97;100.00;102272.34;5195963;28;20022;-87
2023/09/14 08:57:27;;;;;;;14.45;9.60;;;;;;;24.13;100.00;102262.75;5196622;28;20080;-85
2023/09/14 09:00:00;;;;;;;14.15;9.52;;;;;;;24.32;100.00;102264.50;5196512;28;20053;-86
2023/09/14 09:02:32;;;;;;;16.52;9.25;;;;;;;24.42;100.00;102259.38;5195344;28;20076;-88
2023/09/14 09:05:03;;;;;;;12.07;8.32;;;;;;;24.62;100.00;102263.84;5198028;28;20104;-86
2023/09/14 09:07:35;;;;;;;10.65;5.50;;;;;;;24.58;100.00;102268.09;5190758;28;20436;-86
2023/09/14 09:10:15;;;;;;;12.43;6.70;;;;;;;24.31;100.00;102260.09;5198250;28;20104;-88
2023/09/14 09:12:46;;;;;;;14.63;7.03;;;;;;;24.43;100.00;102260.22;5190378;28;20038;-86
2023/09/14 09:15:17;;;;;;;12.10;6.70;;;;;;;24.22;100.00;102253.19;5195074;28;20017;-85
2023/09/14 09:17:47;;;;;;;10.27;6.03;;;;;;;24.26;100.00;102260.75;5197619;28;20076;-85
2023/09/14 09:20:22;;;;;;;9.82;3.80;;;;;;;24.16;100.00;102248.59;5197544;28;20442;-87
2023/09/14 09:22:57;;;;;;;8.95;3.42;;;;;;;24.34;100.00;102248.66;5196409;28;20625;-86
2023/09/14 09:25:42;;;;;;;8.90;3.35;;;;;;;24.59;100.00;102243.19;5200585;28;20025;-85
2023/09/14 09:28:12;;;;;;;11.93;5.78;;;;;;;24.90;100.00;102245.00;5191266;28;20021;-90
2023/09/14 09:30:44;;;;;;;9.45;4.60;;;;;;;24.88;100.00;102247.09;5198830;28;20034;-88
2023/09/14 09:33:14;;;;;;;9.77;4.63;;;;;;;25.04;100.00;102251.16;5195296;28;20112;-85
2023/09/14 09:35:45;;;;;;;8.82;4.28;;;;;;;24.82;100.00;102248.03;5197367;28;20120;-86
2023/09/14 09:38:16;;;;;;;9.68;5.15;;;;;;;24.74;100.00;102242.81;5197174;28;20392;-86
2023/09/14 09:40:46;;;;;;;8.68;5.63;;;;;;;24.79;100.00;102246.56;5194852;28;20041;-88
2023/09/14 09:43:18;;;;;;;8.45;5.20;;;;;;;24.83;100.00;102240.63;5196280;28;20139;-86
2023/09/14 09:45:49;;;;;;;9.07;5.82;;;;;;;24.86;100.00;102241.03;5195271;28;20029;-87
2023/09/14 09:48:19;;;;;;;8.55;4.53;;;;;;;25.19;100.00;102240.66;5196035;28;20098;-86
2023/09/14 09:50:51;;;;;;;11.25;4.13;;;;;;;25.29;100.00;102238.19;5196669;28;20037;-86
2023/09/14 09:53:22;;;;;;;7.63;3.67;;;;;;;25.29;100.00;102235.44;5193297;28;20388;-86
2023/09/14 09:55:52;;;;;;;9.60;4.45;;;;;;;25.26;100.00;102226.84;5194842;28;20044;-85
2023/09/14 09:58:34;;;;;;;10.43;4.70;;;;;;;25.40;100.00;102233.00;5197186;28;20037;-88
2023/09/14 10:01:06;;;;;;;9.23;4.57;;;;;;;25.32;100.00;102231.41;5197676;28;20144;-90
2023/09/14 10:03:37;;;;;;;10.93;4.80;;;;;;;25.45;100.00;102235.88;5197691;28;20033;-89
2023/09/14 10:06:09;;;;;;;9.43;5.20;;;;;;;25.43;100.00;102238.88;5201062;28;20030;-86
2023/09/14 10:08:39;;;;;;;11.95;6.07;;;;;;;25.45;100.00;102228.50;5195692;28;20026;-89
2023/09/14 10:11:10;;;;;;;7.53;4.80;;;;;;;25.19;100.00;102228.81;5193861;28;20403;-86
2023/09/14 10:13:42;;;;;;;10.18;4.85;;;;;;;25.08;100.00;102222.19;5196430;28;20037;-86
2023/09/14 10:16:12;;;;;;;6.53;4.43;;;;;;;24.99;100.00;102231.78;5200396;28;20060;-85
2023/09/14 10:18:44;;;;;;;9.90;5.15;;;;;;;24.67;100.00;102222.84;5192421;28;20021;-87
2023/09/14 10:21:16;;;;;;;6.72;3.60;;;;;;;24.61;100.00;102226.50;5197983;28;20116;-85
2023/09/14 10:23:49;;;;;;;7.82;4.00;;;;;;;24.40;100.00;102214.91;5195467;28;20030;-85
2023/09/14 10:26:20;;;;;;;6.65;3.63;;;;;;;24.08;100.00;102225.03;5191779;28;20511;-83
2023/09/14 10:28:51;;;;;;;6.07;3.13;;;;;;;24.16;100.00;102229.41;5198259;28;20022;-83
2023/09/14 10:31:24;;;;;;;4.68;2.63;;;;;;;24.29;100.00;102221.06;5194034;28;20017;-83
2023/09/14 10:33:59;;;;;;;6.63;2.80;;;;;;;24.43;100.00;102230.06;5194534;28;20032;-83
2023/09/14 10:36:32;;;;;;;7.25;2.67;;;;;;;24.51;100.00;102207.81;5196263;28;20033;-83
2023/09/14 10:39:06;;;;;;;5.45;2.58;;;;;;;24.61;100.00;102216.38;5196065;28;20051;-84
2023/09/14 10:41:36;;;;;;;5.37;3.30;;;;;;;24.49;100.00;102210.78;5182590;28;20026;-83
2023/09/14 10:44:07;;;;;;;6.15;3.35;;;;;;;24.61;100.00;102207.31;5200256;28;20039;-83
2023/09/14 10:46:42;;;;;;;3.92;2.53;;;;;;;24.40;100.00;102205.81;5193460;28;20022;-84
2023/09/14 10:49:14;;;;;;;5.40;2.63;;;;;;;24.41;100.00;102204.75;5191790;28;20030;-83
2023/09/14 10:51:45;;;;;;;7.00;3.00;;;;;;;24.43;100.00;102203.44;5191034;28;20488;-84
2023/09/14 10:54:15;;;;;;;6.25;2.70;;;;;;;24.54;100.00;102202.69;5196530;28;20022;-83
2023/09/14 10:56:47;;;;;;;6.00;2.72;;;;;;;24.31;100.00;102199.75;5190251;28;20030;-84
2023/09/14 10:59:17;;;;;;;3.72;2.08;;;;;;;24.38;100.00;102200.56;5196141;28;20180;-84
2023/09/14 11:01:49;;;;;;;5.55;2.78;;;;;;;24.52;100.00;102196.63;5193874;28;20030;-84
2023/09/14 11:04:21;;;;;;;7.22;3.03;;;;;;;24.31;100.00;102199.75;5192817;28;20040;-84
2023/09/14 11:06:54;;;;;;;6.00;2.50;;;;;;;24.42;100.00;102200.94;5191297;28;20037;-84
2023/09/14 11:09:24;;;;;;;6.75;2.85;;;;;;;24.43;100.00;102200.72;5191399;28;20017;-87
2023/09/14 11:11:55;;;;;;;5.45;3.10;;;;;;;24.38;100.00;102195.06;5193884;28;20022;-84
2023/09/14 11:14:26;;;;;;;7.82;2.90;;;;;;;24.47;100.00;102188.22;5195617;28;20025;-84
2023/09/14 11:16:58;;;;;;;5.10;2.45;;;;;;;24.53;100.00;102192.81;5194612;28;20041;-87
2023/09/14 11:19:30;;;;;;;7.18;2.95;;;;;;;24.72;100.00;102188.19;5195251;28;20021;-89
2023/09/14 11:22:04;;;;;;;6.07;3.15;;;;;;;25.02;100.00;102185.50;5197039;28;20052;-85
2023/09/14 11:24:36;;;;;;;5.17;2.93;;;;;;;25.05;100.00;102178.69;5196443;28;20487;-84
2023/09/14 11:27:08;;;;;;;5.78;2.83;;;;;;;25.03;100.00;102183.59;5192752;28;20029;-84
2023/09/14 11:29:43;;;;;;;6.72;2.97;;;;;;;25.04;100.00;102183.34;5186030;28;20061;-87
2023/09/14 11:32:21;;;;;;;3.08;2.40;;;;;;;24.87;100.00;102176.81;5193577;28;20017;-84